GVAC

Amílcar Cabral International Airport

Espargos, Cape Verde
METAR GVAC 180800Z 05009KT 9999 SCT014 BKN100 BKN200 22/17 Q1017 NOSIG
Observed Flight Rules
Dec-18 @ 08:00 UTC (an hour ago) Visual Flight Rules
Wind Visibility Clouds
50° at 9 knots 10,000+ meters
  • Scattered at 1,400' AGL
  • Broken at 10,000' AGL
  • Broken at 20,000' AGL
Temperatures Readings
Current 22°C / 72°F
Dewpoint 17°C / 63°F
Humidity 73%
Altimeter 30.03" Hg
Pressure 1017 hPa
Elevation 55
METAR GVAC 180800Z 05009KT 9999 SCT014 BKN100 BKN200 22/17 Q1017 NOSIG
Observed Flight Rules
Dec-18 @ 08:00 UTC
(an hour ago)
VFR
Wind Visibility
50° at 9 knots 10,000+ meters
Clouds
  • Scattered at 1,400' AGL
  • Broken at 10,000' AGL
  • Broken at 20,000' AGL
Temperature Dewpoint
22°C / 72°F 17°C / 63°F
Humidity Altimeter Pressure
73% 30.03" Hg 1017 hPa